Time;durP1;ratioP1;P1;durP2;ratioP2;P2;SDS_P1;SDS_P2;PMS_P1;PMS_P2;Temp;Humidity;BMP_temperature;BMP_pressure;BME280_temperature;BME280_humidity;BME280_pressure;Samples;Min_cycle;Max_cycle;Signal;HPM_P1;HPM_P2
2023/03/21 00:00:25;;;;;;;4.07;2.40;;;7.30;99.90;;;;;;5016055;28;20435;-52
2023/03/21 00:02:51;;;;;;;3.87;2.80;;;7.20;99.90;;;;;;5021672;28;20223;-53
2023/03/21 00:05:19;;;;;;;2.97;2.70;;;7.20;99.90;;;;;;5024137;28;20457;-52
2023/03/21 00:07:45;;;;;;;3.83;3.07;;;7.10;99.90;;;;;;5021209;28;20595;-54
2023/03/21 00:10:11;;;;;;;7.70;3.30;;;7.00;99.90;;;;;;5017953;28;20427;-52
2023/03/21 00:12:36;;;;;;;3.30;2.80;;;7.00;99.90;;;;;;5016170;28;20291;-52
2023/03/21 00:15:07;;;;;;;5.47;3.30;;;7.00;99.90;;;;;;5020033;28;20598;-54
2023/03/21 00:17:33;;;;;;;3.97;3.27;;;6.90;99.90;;;;;;5020166;28;20180;-56
2023/03/21 00:19:59;;;;;;;3.30;2.73;;;6.90;99.90;;;;;;5018820;28;20430;-54
2023/03/21 00:22:26;;;;;;;6.50;3.43;;;6.80;99.90;;;;;;5020469;28;20446;-56
2023/03/21 00:24:53;;;;;;;6.50;3.37;;;6.80;99.90;;;;;;5019717;28;20545;-53
2023/03/21 00:27:19;;;;;;;3.90;3.40;;;6.70;99.90;;;;;;5016720;28;20469;-55
2023/03/21 00:29:45;;;;;;;5.03;3.40;;;6.70;99.90;;;;;;5015566;28;20490;-53
2023/03/21 00:32:11;;;;;;;3.27;2.97;;;6.60;99.90;;;;;;5015281;28;20661;-54
2023/03/21 00:34:40;;;;;;;6.13;3.90;;;6.60;99.90;;;;;;5018257;28;20473;-53
2023/03/21 00:37:06;;;;;;;3.77;3.33;;;6.50;99.90;;;;;;5017531;28;20641;-55
2023/03/21 00:39:32;;;;;;;6.80;4.33;;;6.50;99.90;;;;;;5016941;28;20411;-55
2023/03/21 00:41:58;;;;;;;6.13;4.50;;;6.40;99.90;;;;;;5018933;28;20439;-54
2023/03/21 00:44:24;;;;;;;5.97;4.27;;;6.40;99.90;;;;;;5019254;28;20207;-55
2023/03/21 00:46:50;;;;;;;5.70;4.20;;;6.30;99.90;;;;;;5016191;28;20187;-52
2023/03/21 00:49:16;;;;;;;5.80;3.97;;;6.30;99.90;;;;;;5018726;28;20419;-53
2023/03/21 00:51:43;;;;;;;4.50;4.07;;;6.20;99.90;;;;;;5018459;28;20533;-54
2023/03/21 00:54:11;;;;;;;3.80;3.40;;;6.20;99.90;;;;;;5015893;28;20277;-53
2023/03/21 00:56:36;;;;;;;5.80;4.30;;;6.10;99.90;;;;;;5016879;28;20426;-51
2023/03/21 00:59:02;;;;;;;5.23;3.77;;;6.10;99.90;;;;;;5015271;28;20485;-53
2023/03/21 01:01:30;;;;;;;9.87;3.43;;;6.10;99.90;;;;;;5017424;28;20172;-53
2023/03/21 01:04:04;;;;;;;6.30;4.30;;;6.10;99.90;;;;;;5019514;28;20184;-53
2023/03/21 01:06:30;;;;;;;4.70;4.10;;;6.00;99.90;;;;;;5020207;28;21223;-52
2023/03/21 01:08:56;;;;;;;8.00;3.93;;;6.00;99.90;;;;;;5018746;28;20434;-53
2023/03/21 01:11:25;;;;;;;4.83;3.80;;;6.00;99.90;;;;;;5016906;28;20442;-53
2023/03/21 01:13:51;;;;;;;4.53;3.83;;;6.00;99.90;;;;;;5017028;28;20453;-53
2023/03/21 01:16:16;;;;;;;5.20;3.90;;;6.00;99.90;;;;;;5018168;28;20446;-52
2023/03/21 01:18:42;;;;;;;5.27;4.20;;;5.90;99.90;;;;;;5020269;28;20419;-56
2023/03/21 01:21:11;;;;;;;7.10;3.83;;;5.90;99.90;;;;;;5017658;28;20700;-52
2023/03/21 01:23:38;;;;;;;10.90;3.87;;;5.90;99.90;;;;;;5019210;28;20212;-54
2023/03/21 01:26:04;;;;;;;9.00;4.50;;;5.90;99.90;;;;;;5018473;28;20512;-53
2023/03/21 01:28:30;;;;;;;7.93;3.70;;;5.90;99.90;;;;;;5017965;28;20920;-54
2023/03/21 01:30:56;;;;;;;9.70;3.80;;;5.90;99.90;;;;;;5020150;28;20438;-54
2023/03/21 01:33:22;;;;;;;4.83;3.80;;;5.90;99.90;;;;;;5013927;28;20232;-54
2023/03/21 01:35:48;;;;;;;5.23;3.57;;;5.90;99.90;;;;;;5016699;28;20557;-54
2023/03/21 01:38:14;;;;;;;10.13;3.80;;;5.90;99.90;;;;;;5019170;28;20420;-55
2023/03/21 01:40:40;;;;;;;9.37;4.07;;;5.90;99.90;;;;;;5020164;28;20808;-54
2023/03/21 01:43:46;;;;;;;5.60;4.40;;;5.90;99.90;;;;;;5015858;28;20458;-52
2023/03/21 01:46:21;;;;;;;9.30;7.30;;;5.90;99.90;;;;;;5019858;28;20470;-54
2023/03/21 01:48:57;;;;;;;10.13;6.03;;;5.90;99.90;;;;;;5023234;28;20953;-54
2023/03/21 01:51:26;;;;;;;6.73;4.33;;;5.90;99.90;;;;;;5018884;28;20522;-51
2023/03/21 01:53:52;;;;;;;9.23;3.83;;;5.90;99.90;;;;;;5019197;28;20553;-53
2023/03/21 01:56:38;;;;;;;5.93;3.50;;;5.90;99.90;;;;;;5019415;28;20514;-52
2023/03/21 01:59:11;;;;;;;5.73;3.80;;;5.90;99.90;;;;;;5021580;28;20163;-52
2023/03/21 02:01:41;;;;;;;4.83;3.50;;;5.90;99.90;;;;;;5023211;28;20418;-54
2023/03/21 02:04:07;;;;;;;5.17;3.43;;;5.90;99.90;;;;;;5024204;28;20446;-52
2023/03/21 02:06:53;;;;;;;5.83;3.90;;;5.90;99.90;;;;;;5021546;28;20558;-51
2023/03/21 02:09:22;;;;;;;6.20;4.27;;;5.90;99.90;;;;;;5019152;28;20954;-55
2023/03/21 02:11:48;;;;;;;4.60;3.47;;;5.90;99.90;;;;;;5021628;28;20936;-51
2023/03/21 02:14:16;;;;;;;4.80;3.40;;;5.80;99.90;;;;;;5020313;28;20465;-54
2023/03/21 02:17:03;;;;;;;4.60;3.47;;;5.80;99.90;;;;;;5024991;28;20566;-57
2023/03/21 02:20:00;;;;;;;3.70;3.20;;;5.80;99.90;;;;;;5023972;28;20426;-53
2023/03/21 02:23:03;;;;;;;3.70;2.80;;;5.80;99.90;;;;;;5022938;28;20451;-51
2023/03/21 02:25:50;;;;;;;4.67;4.00;;;5.70;99.90;;;;;;5020239;28;20459;-54
2023/03/21 02:28:28;;;;;;;6.07;3.27;;;5.60;99.90;;;;;;5021685;28;20426;-55
2023/03/21 02:31:07;;;;;;;5.90;3.53;;;5.60;99.90;;;;;;5025180;28;20434;-54
2023/03/21 02:33:45;;;;;;;5.63;3.70;;;5.50;99.90;;;;;;5023945;28;20452;-53
2023/03/21 02:36:29;;;;;;;6.13;3.87;;;5.50;99.90;;;;;;5022493;28;20437;-53
2023/03/21 02:39:12;;;;;;;5.30;4.20;;;5.50;99.90;;;;;;5023028;28;20499;-53
2023/03/21 02:42:16;;;;;;;4.93;4.07;;;5.50;99.90;;;;;;5021427;28;20439;-53
2023/03/21 02:44:52;;;;;;;6.80;3.83;;;5.50;99.90;;;;;;5019709;28;20524;-54
2023/03/21 02:47:22;;;;;;;6.63;3.80;;;5.50;99.90;;;;;;5018622;28;20430;-53
2023/03/21 02:49:55;;;;;;;5.90;3.80;;;5.50;99.90;;;;;;5021978;28;20441;-53
2023/03/21 02:52:27;;;;;;;4.90;3.93;;;5.50;99.90;;;;;;5019080;28;20977;-55
2023/03/21 02:54:54;;;;;;;7.63;3.60;;;5.50;99.90;;;;;;5018528;28;20534;-56
2023/03/21 02:57:20;;;;;;;4.50;3.00;;;5.50;99.90;;;;;;5018431;28;20422;-53
2023/03/21 02:59:49;;;;;;;4.37;3.50;;;5.50;99.90;;;;;;5018019;28;20474;-53
2023/03/21 03:02:16;;;;;;;4.10;3.20;;;5.50;99.90;;;;;;5018414;28;20179;-52
2023/03/21 03:04:42;;;;;;;6.83;4.40;;;5.50;99.90;;;;;;5016312;28;20466;-53
2023/03/21 03:07:30;;;;;;;3.80;3.40;;;5.60;99.90;;;;;;5018643;28;20446;-54
2023/03/21 03:10:20;;;;;;;5.37;3.93;;;5.60;99.90;;;;;;5018520;28;20653;-54
2023/03/21 03:13:26;;;;;;;5.20;4.13;;;5.60;99.90;;;;;;5020086;28;20478;-54
2023/03/21 03:16:11;;;;;;;6.07;3.17;;;5.70;99.90;;;;;;5020528;28;20450;-54
2023/03/21 03:18:52;;;;;;;3.90;3.50;;;5.70;99.90;;;;;;5026945;28;20437;-51
2023/03/21 03:21:41;;;;;;;4.47;3.40;;;5.70;99.90;;;;;;5020283;28;20435;-52
2023/03/21 03:24:16;;;;;;;3.90;3.50;;;5.70;99.90;;;;;;5018895;28;20541;-53
2023/03/21 03:26:57;;;;;;;6.37;3.50;;;5.70;99.90;;;;;;5024234;28;20568;-53
2023/03/21 03:29:26;;;;;;;4.47;3.23;;;5.70;99.90;;;;;;5016785;28;20462;-53
2023/03/21 03:32:00;;;;;;;5.87;3.53;;;5.70;99.90;;;;;;5019981;28;20430;-52
2023/03/21 03:34:33;;;;;;;7.20;4.30;;;5.70;99.90;;;;;;5019472;28;20531;-54
2023/03/21 03:37:03;;;;;;;8.07;3.77;;;5.60;99.90;;;;;;5017163;28;20427;-53
2023/03/21 03:39:39;;;;;;;4.13;3.30;;;5.60;99.90;;;;;;5019940;28;20419;-53
2023/03/21 03:42:12;;;;;;;6.47;3.90;;;5.60;99.90;;;;;;5017795;28;20518;-54
2023/03/21 03:44:38;;;;;;;5.03;3.47;;;5.60;99.90;;;;;;5017746;28;20533;-52
2023/03/21 03:47:06;;;;;;;4.97;3.53;;;5.60;99.90;;;;;;5017011;28;20435;-53
2023/03/21 03:49:37;;;;;;;8.70;3.90;;;5.60;99.90;;;;;;5026479;28;20438;-52
2023/03/21 03:52:05;;;;;;;4.90;3.23;;;5.60;99.90;;;;;;5025022;28;20442;-53
2023/03/21 03:54:36;;;;;;;7.17;3.40;;;5.60;99.90;;;;;;5027757;28;20582;-55
2023/03/21 03:57:03;;;;;;;4.00;2.97;;;5.60;99.90;;;;;;5021832;28;20509;-52
2023/03/21 03:59:29;;;;;;;5.10;3.40;;;5.60;99.90;;;;;;5020811;28;20434;-54
2023/03/21 04:01:54;;;;;;;5.63;3.30;;;5.50;99.90;;;;;;5022773;28;20427;-54
2023/03/21 04:04:21;;;;;;;3.90;3.50;;;5.50;99.90;;;;;;5024271;28;20286;-53
2023/03/21 04:06:50;;;;;;;5.93;3.10;;;5.50;99.90;;;;;;5028155;28;20176;-54
2023/03/21 04:09:17;;;;;;;10.90;3.37;;;5.50;99.90;;;;;;5024170;28;20481;-55
2023/03/21 04:11:43;;;;;;;5.90;3.90;;;5.50;99.90;;;;;;5024378;28;20509;-51
2023/03/21 04:14:09;;;;;;;5.97;3.60;;;5.50;99.90;;;;;;5025004;28;20529;-55
2023/03/21 04:16:34;;;;;;;6.83;3.40;;;5.50;99.90;;;;;;5024805;28;20234;-52
2023/03/21 04:19:00;;;;;;;5.50;3.23;;;5.40;99.90;;;;;;5025145;28;20187;-57
2023/03/21 04:21:27;;;;;;;3.30;2.90;;;5.50;99.90;;;;;;5020448;28;20286;-57
2023/03/21 04:23:53;;;;;;;3.50;3.20;;;5.40;99.90;;;;;;5022849;28;20480;-56
2023/03/21 04:26:21;;;;;;;3.20;2.90;;;5.40;99.90;;;;;;5019889;28;20829;-55
2023/03/21 04:28:47;;;;;;;4.40;3.33;;;5.40;99.90;;;;;;5027187;28;20923;-55
2023/03/21 04:31:13;;;;;;;4.30;3.33;;;5.30;99.90;;;;;;5020272;28;20565;-52
2023/03/21 04:33:39;;;;;;;4.00;3.57;;;5.30;99.90;;;;;;5022876;28;20817;-51
2023/03/21 04:36:08;;;;;;;6.10;4.20;;;5.30;99.90;;;;;;5022091;28;20266;-53
2023/03/21 04:38:35;;;;;;;10.50;3.70;;;5.20;99.90;;;;;;5016460;28;20510;-52
2023/03/21 04:41:01;;;;;;;8.70;4.10;;;5.20;99.90;;;;;;5024316;28;20423;-52
2023/03/21 04:43:27;;;;;;;9.03;3.97;;;5.10;99.90;;;;;;5027932;28;20430;-55
2023/03/21 04:45:54;;;;;;;3.80;3.20;;;5.10;99.90;;;;;;5025928;28;20951;-54
2023/03/21 04:48:23;;;;;;;4.10;2.90;;;5.10;99.90;;;;;;5021379;28;20911;-51
2023/03/21 04:50:49;;;;;;;5.90;3.83;;;5.10;99.90;;;;;;5020195;28;20476;-52
2023/03/21 04:53:15;;;;;;;4.20;3.80;;;5.00;99.90;;;;;;5011651;28;20442;-53
2023/03/21 04:55:40;;;;;;;4.00;3.60;;;5.00;99.90;;;;;;5030928;28;20421;-53
2023/03/21 04:58:06;;;;;;;9.83;3.40;;;5.00;99.90;;;;;;5018863;28;20168;-53
2023/03/21 05:00:36;;;;;;;4.77;4.00;;;5.00;99.90;;;;;;5019743;28;20180;-52
2023/03/21 05:03:04;;;;;;;6.67;4.50;;;5.00;99.90;;;;;;5016330;28;20215;-56
2023/03/21 05:05:30;;;;;;;5.37;3.47;;;5.00;99.90;;;;;;5008950;28;20558;-54
2023/03/21 05:07:56;;;;;;;8.93;4.73;;;5.00;99.90;;;;;;5018724;28;20484;-55
2023/03/21 05:10:22;;;;;;;9.33;4.10;;;5.00;99.90;;;;;;5020596;28;20430;-54
2023/03/21 05:12:47;;;;;;;9.67;3.80;;;5.10;99.90;;;;;;5020065;28;20979;-55
2023/03/21 05:15:13;;;;;;;4.67;3.30;;;5.10;99.90;;;;;;5021666;28;20251;-54
2023/03/21 05:17:41;;;;;;;7.97;4.50;;;5.10;99.90;;;;;;5021681;28;20275;-54
2023/03/21 05:20:10;;;;;;;6.33;3.77;;;5.10;99.90;;;;;;5016245;28;20271;-51
2023/03/21 05:22:39;;;;;;;9.93;4.30;;;5.10;99.90;;;;;;5014282;28;20446;-52
2023/03/21 05:25:07;;;;;;;6.87;4.20;;;5.10;99.90;;;;;;5020347;28;21041;-54
2023/03/21 05:27:34;;;;;;;7.27;4.27;;;5.10;99.90;;;;;;5017529;28;21085;-52
2023/03/21 05:30:15;;;;;;;6.77;4.80;;;5.10;99.90;;;;;;5022576;28;20438;-53
2023/03/21 05:32:41;;;;;;;5.90;4.13;;;5.10;99.90;;;;;;5027363;28;20478;-54
2023/03/21 05:35:07;;;;;;;4.20;3.50;;;5.10;99.90;;;;;;5025415;28;20465;-52
2023/03/21 05:37:32;;;;;;;3.60;3.30;;;5.10;99.90;;;;;;5027229;28;20183;-48
2023/03/21 05:39:58;;;;;;;13.30;3.80;;;5.10;99.90;;;;;;5021578;28;20520;-56
2023/03/21 05:42:24;;;;;;;6.53;4.30;;;5.10;99.90;;;;;;5016234;28;20192;-52
2023/03/21 05:44:50;;;;;;;4.27;3.87;;;5.10;99.90;;;;;;5020064;28;20199;-54
2023/03/21 05:47:16;;;;;;;6.10;4.00;;;5.10;99.90;;;;;;5016618;28;20505;-53
2023/03/21 05:49:43;;;;;;;5.37;3.67;;;5.00;99.90;;;;;;5029146;28;20203;-50
2023/03/21 05:52:09;;;;;;;6.87;4.03;;;5.00;99.90;;;;;;5020383;28;20418;-51
2023/03/21 05:54:35;;;;;;;4.30;3.77;;;5.00;99.90;;;;;;5019476;28;20461;-53
2023/03/21 05:57:01;;;;;;;5.63;4.17;;;5.00;99.90;;;;;;5016782;28;20446;-52
2023/03/21 05:59:27;;;;;;;5.73;4.00;;;5.00;99.90;;;;;;5018515;28;20164;-54
2023/03/21 06:01:52;;;;;;;7.73;4.67;;;5.00;99.90;;;;;;5016731;28;20820;-54
2023/03/21 06:04:18;;;;;;;6.03;4.30;;;5.00;99.90;;;;;;5015083;28;20200;-54
2023/03/21 06:06:44;;;;;;;5.80;4.60;;;5.00;99.90;;;;;;5018644;28;20204;-53
2023/03/21 06:09:09;;;;;;;10.90;5.30;;;5.00;99.90;;;;;;5027894;28;20668;-50
2023/03/21 06:11:37;;;;;;;7.57;4.90;;;5.00;99.90;;;;;;5026227;28;20208;-52
2023/03/21 06:14:03;;;;;;;11.00;5.53;;;5.00;99.90;;;;;;5027766;28;20275;-54
2023/03/21 06:16:29;;;;;;;8.90;4.53;;;5.00;99.90;;;;;;5020675;28;20495;-54
2023/03/21 06:18:55;;;;;;;5.00;3.83;;;5.00;99.90;;;;;;5022467;28;20175;-54
2023/03/21 06:21:21;;;;;;;6.07;4.00;;;5.10;99.90;;;;;;5021350;28;20206;-53
2023/03/21 06:23:50;;;;;;;6.60;4.20;;;5.10;99.90;;;;;;5026146;28;20958;-54
2023/03/21 06:26:18;;;;;;;8.17;3.80;;;5.20;99.90;;;;;;5014699;28;20899;-50
2023/03/21 06:28:44;;;;;;;4.73;3.63;;;5.30;99.90;;;;;;5017729;28;20485;-56
2023/03/21 06:31:09;;;;;;;4.90;3.40;;;5.40;99.90;;;;;;5025819;28;20434;-54
2023/03/21 06:33:35;;;;;;;7.73;4.00;;;5.40;99.90;;;;;;5024042;28;20200;-56
2023/03/21 06:36:01;;;;;;;4.97;3.70;;;5.40;99.90;;;;;;5025045;28;20255;-54
2023/03/21 06:38:26;;;;;;;7.77;4.30;;;5.50;99.90;;;;;;5029409;28;20585;-50
2023/03/21 06:40:53;;;;;;;7.00;3.90;;;5.60;99.90;;;;;;5017951;28;20184;-56
2023/03/21 06:43:18;;;;;;;4.80;4.03;;;5.70;99.90;;;;;;5023190;28;20748;-53
2023/03/21 06:45:44;;;;;;;6.63;4.20;;;5.70;99.90;;;;;;5025362;28;20466;-53
2023/03/21 06:48:10;;;;;;;7.30;3.67;;;5.80;99.90;;;;;;5029446;28;20247;-54
2023/03/21 06:50:36;;;;;;;9.20;5.07;;;5.80;99.90;;;;;;5022840;28;20814;-55
2023/03/21 06:53:01;;;;;;;12.50;6.07;;;5.90;99.90;;;;;;5023660;28;20439;-53
2023/03/21 06:55:27;;;;;;;17.33;7.53;;;5.90;99.90;;;;;;5026873;28;20177;-54
2023/03/21 06:57:55;;;;;;;22.03;8.57;;;6.00;99.90;;;;;;5030257;28;20210;-53
2023/03/21 07:00:21;;;;;;;18.10;8.70;;;6.10;99.90;;;;;;5028753;28;20436;-55
2023/03/21 07:02:48;;;;;;;11.80;6.40;;;6.20;99.90;;;;;;5028298;28;20989;-52
2023/03/21 07:05:14;;;;;;;8.67;5.50;;;6.30;99.90;;;;;;5029168;28;20458;-53
2023/03/21 07:07:39;;;;;;;8.93;3.90;;;6.40;99.90;;;;;;5025547;28;20449;-52
2023/03/21 07:10:06;;;;;;;9.77;5.50;;;6.50;99.90;;;;;;5016194;28;20932;-54
2023/03/21 07:12:34;;;;;;;8.30;4.87;;;6.60;99.90;;;;;;5028699;28;20167;-54
2023/03/21 07:15:01;;;;;;;13.40;6.50;;;6.60;99.90;;;;;;5022845;28;20403;-54
2023/03/21 07:17:27;;;;;;;13.10;8.13;;;6.70;99.90;;;;;;5030331;28;20426;-54
2023/03/21 07:19:53;;;;;;;14.47;7.00;;;6.70;99.90;;;;;;5027509;28;20430;-52
2023/03/21 07:22:18;;;;;;;9.63;5.77;;;6.70;99.90;;;;;;5021689;28;20196;-54
2023/03/21 07:24:47;;;;;;;7.90;4.27;;;6.70;99.90;;;;;;5023836;28;20321;-53
2023/03/21 07:27:13;;;;;;;7.17;5.53;;;6.70;99.90;;;;;;5017333;28;20188;-54
2023/03/21 07:29:39;;;;;;;7.93;5.47;;;6.60;99.90;;;;;;5028223;28;20994;-54
2023/03/21 07:32:05;;;;;;;8.83;5.33;;;6.70;99.90;;;;;;5024242;28;20445;-54
2023/03/21 07:34:32;;;;;;;9.03;4.80;;;6.70;99.90;;;;;;5028309;28;20442;-53
2023/03/21 07:36:58;;;;;;;13.20;5.30;;;6.80;99.90;;;;;;5029057;28;20171;-56
2023/03/21 07:39:24;;;;;;;9.93;4.70;;;6.90;99.90;;;;;;5022831;28;20426;-56
2023/03/21 07:41:50;;;;;;;6.00;4.30;;;6.90;99.90;;;;;;5017532;28;20431;-52
2023/03/21 07:44:16;;;;;;;8.60;4.80;;;7.00;99.90;;;;;;5022699;28;20454;-54
2023/03/21 07:46:41;;;;;;;9.47;4.80;;;7.10;99.90;;;;;;5026886;28;20208;-54
2023/03/21 07:49:07;;;;;;;7.13;5.23;;;7.20;99.90;;;;;;5021022;28;20319;-55
2023/03/21 07:51:34;;;;;;;8.03;5.77;;;7.30;99.90;;;;;;5028226;28;20180;-54
2023/03/21 07:54:01;;;;;;;6.37;5.30;;;7.30;99.90;;;;;;5023965;28;20470;-54
2023/03/21 07:56:27;;;;;;;6.80;5.53;;;7.40;99.90;;;;;;5038040;28;20403;-54
2023/03/21 07:58:53;;;;;;;7.37;5.00;;;7.40;99.90;;;;;;5018662;28;20927;-52
2023/03/21 08:01:20;;;;;;;14.10;5.33;;;7.40;99.90;;;;;;5025195;28;20446;-54
2023/03/21 08:03:46;;;;;;;9.63;4.87;;;7.50;99.90;;;;;;5028986;28;20721;-54
2023/03/21 08:06:12;;;;;;;6.37;4.43;;;7.60;99.90;;;;;;5028658;28;20454;-54
2023/03/21 08:08:38;;;;;;;9.67;5.17;;;7.70;99.90;;;;;;5023414;28;21100;-54
2023/03/21 08:11:04;;;;;;;12.10;5.57;;;7.80;99.90;;;;;;5019053;28;20948;-53
2023/03/21 08:13:30;;;;;;;9.20;5.63;;;7.90;99.90;;;;;;5028196;28;20227;-51
2023/03/21 08:15:56;;;;;;;8.80;5.53;;;8.10;99.90;;;;;;5025746;28;20418;-52
2023/03/21 08:18:21;;;;;;;9.43;6.00;;;8.20;99.90;;;;;;5025357;28;20191;-53
2023/03/21 08:20:55;;;;;;;6.93;5.50;;;8.30;99.90;;;;;;5026919;28;20210;-52
2023/03/21 08:23:21;;;;;;;8.40;6.20;;;8.50;99.90;;;;;;5028387;28;20238;-52
2023/03/21 08:25:53;;;;;;;7.80;6.10;;;8.60;99.90;;;;;;5023653;28;20496;-52
2023/03/21 08:28:20;;;;;;;9.73;6.40;;;8.70;99.40;;;;;;5020640;28;20435;-52
2023/03/21 08:30:46;;;;;;;11.67;7.63;;;8.90;98.70;;;;;;5027935;28;20454;-52
2023/03/21 08:33:12;;;;;;;9.83;6.27;;;9.00;96.80;;;;;;5018744;28;20451;-54
2023/03/21 08:35:38;;;;;;;9.07;6.27;;;9.20;96.60;;;;;;5025536;28;20854;-53
2023/03/21 08:38:05;;;;;;;11.53;6.70;;;9.30;94.30;;;;;;5027804;28;20438;-55
2023/03/21 08:40:31;;;;;;;9.43;6.63;;;9.40;92.20;;;;;;5018067;28;20437;-53
2023/03/21 08:42:57;;;;;;;10.63;5.93;;;9.50;88.00;;;;;;5008271;28;20461;-53
2023/03/21 08:45:23;;;;;;;10.70;5.83;;;9.60;86.20;;;;;;5019483;28;20457;-53
2023/03/21 08:47:49;;;;;;;10.37;5.10;;;9.70;84.30;;;;;;5019131;28;20708;-53
2023/03/21 08:50:18;;;;;;;12.60;6.40;;;9.80;83.20;;;;;;5024632;28;20426;-50
2023/03/21 08:52:43;;;;;;;10.70;5.50;;;10.00;81.30;;;;;;5015189;28;20458;-53
2023/03/21 08:55:10;;;;;;;8.90;5.63;;;10.10;78.90;;;;;;5016994;28;20445;-50
2023/03/21 08:57:36;;;;;;;8.97;6.37;;;10.30;77.40;;;;;;5022858;28;20183;-56
2023/03/21 09:00:11;;;;;;;9.30;5.70;;;10.40;75.20;;;;;;5020325;28;20931;-53
2023/03/21 09:02:37;;;;;;;9.70;5.70;;;10.60;73.40;;;;;;5020164;28;20500;-54
2023/03/21 09:05:04;;;;;;;11.10;4.77;;;10.80;73.20;;;;;;5024245;28;20462;-52
2023/03/21 09:07:32;;;;;;;7.23;4.60;;;10.90;71.60;;;;;;5025955;28;20218;-52
2023/03/21 09:09:59;;;;;;;7.10;4.43;;;11.10;69.70;;;;;;5020329;28;20986;-54
2023/03/21 09:12:24;;;;;;;4.80;3.90;;;11.10;67.40;;;;;;5023198;28;20426;-48
2023/03/21 09:14:52;;;;;;;5.03;4.13;;;11.30;66.50;;;;;;5028715;28;20490;-48
2023/03/21 09:17:17;;;;;;;5.47;4.73;;;11.30;65.20;;;;;;5031578;28;20175;-48
2023/03/21 09:19:45;;;;;;;7.13;4.90;;;11.40;63.50;;;;;;5025653;28;20499;-53
2023/03/21 09:22:16;;;;;;;4.90;4.20;;;11.40;63.20;;;;;;5026094;28;20222;-52
2023/03/21 09:24:46;;;;;;;5.30;4.57;;;11.30;62.70;;;;;;5023731;28;21009;-53
2023/03/21 09:27:12;;;;;;;4.67;4.17;;;11.40;63.10;;;;;;5038901;28;20406;-51
2023/03/21 09:29:42;;;;;;;6.47;4.50;;;11.50;63.20;;;;;;5021509;28;20434;-51
2023/03/21 09:32:08;;;;;;;6.13;4.50;;;11.50;62.10;;;;;;5022589;28;20454;-52
2023/03/21 09:34:35;;;;;;;4.70;3.90;;;11.60;62.10;;;;;;5019753;28;20450;-51
2023/03/21 09:37:02;;;;;;;8.07;4.70;;;11.70;61.50;;;;;;5024687;28;20406;-52
2023/03/21 09:39:28;;;;;;;7.10;4.80;;;11.80;61.60;;;;;;5020051;28;20435;-53
2023/03/21 09:42:21;;;;;;;6.00;3.60;;;11.80;61.00;;;;;;5021560;28;20446;-53
2023/03/21 09:44:53;;;;;;;6.03;4.07;;;11.90;61.60;;;;;;5024596;28;20450;-52
2023/03/21 09:47:23;;;;;;;6.10;4.40;;;12.00;60.30;;;;;;5022659;28;20583;-52
2023/03/21 09:50:03;;;;;;;4.67;4.07;;;12.00;60.10;;;;;;5022096;28;20421;-52
2023/03/21 09:52:33;;;;;;;5.00;4.20;;;12.10;59.90;;;;;;5023905;28;20461;-52
2023/03/21 09:54:59;;;;;;;6.47;4.30;;;12.10;59.40;;;;;;5021026;28;20521;-52
2023/03/21 09:57:27;;;;;;;5.47;4.87;;;12.10;59.00;;;;;;5027972;28;20544;-53
2023/03/21 09:59:55;;;;;;;5.50;4.10;;;12.00;58.60;;;;;;5025812;28;20182;-50
2023/03/21 10:02:46;;;;;;;6.20;3.93;;;12.00;59.10;;;;;;5026615;28;20414;-53
2023/03/21 10:05:12;;;;;;;4.97;4.20;;;12.00;59.00;;;;;;5023978;28;21028;-51
2023/03/21 10:07:46;;;;;;;5.50;3.77;;;12.10;59.00;;;;;;5021149;28;20974;-51
2023/03/21 10:10:21;;;;;;;4.43;4.00;;;12.20;58.80;;;;;;5022059;28;20437;-52
2023/03/21 10:12:49;;;;;;;5.97;4.00;;;12.20;58.70;;;;;;5024940;28;20516;-53
2023/03/21 10:15:20;;;;;;;6.30;3.90;;;12.20;58.90;;;;;;5029468;28;20517;-50
2023/03/21 10:17:58;;;;;;;5.37;4.50;;;12.30;58.20;;;;;;5025246;28;20430;-53
2023/03/21 10:20:29;;;;;;;7.10;4.87;;;12.30;58.50;;;;;;5026455;28;21172;-50
2023/03/21 10:22:58;;;;;;;6.63;4.70;;;12.30;58.80;;;;;;5029284;28;20501;-50
2023/03/21 10:25:30;;;;;;;4.17;3.77;;;12.40;58.70;;;;;;5027134;28;20524;-53
2023/03/21 10:27:57;;;;;;;13.00;4.53;;;12.50;58.10;;;;;;5020567;28;20461;-52
2023/03/21 10:30:39;;;;;;;8.40;4.13;;;12.50;58.10;;;;;;5024386;28;21091;-50
2023/03/21 10:33:08;;;;;;;4.40;4.00;;;12.50;57.90;;;;;;5025165;28;20533;-52
2023/03/21 10:35:36;;;;;;;4.47;4.00;;;12.50;57.60;;;;;;5024081;28;20439;-50
2023/03/21 10:38:03;;;;;;;9.13;4.80;;;12.50;57.60;;;;;;5022619;28;20861;-51
2023/03/21 10:40:29;;;;;;;6.90;4.30;;;12.50;57.60;;;;;;5027655;28;20442;-52
2023/03/21 10:42:56;;;;;;;5.33;4.60;;;12.50;57.70;;;;;;5027165;28;20449;-51
2023/03/21 10:45:23;;;;;;;7.80;4.50;;;12.50;57.60;;;;;;5026487;28;20465;-50
2023/03/21 10:47:50;;;;;;;6.20;5.30;;;12.50;58.10;;;;;;5025202;28;20438;-51
2023/03/21 10:50:25;;;;;;;4.83;4.33;;;12.60;58.60;;;;;;5028505;28;21221;-53
2023/03/21 10:52:59;;;;;;;4.33;3.93;;;12.70;58.10;;;;;;5028543;28;20489;-52
2023/03/21 10:55:38;;;;;;;7.77;4.90;;;12.70;58.10;;;;;;5028070;28;20469;-52
2023/03/21 10:58:23;;;;;;;5.40;4.23;;;12.80;58.10;;;;;;5021137;28;20827;-52
2023/03/21 11:00:54;;;;;;;5.50;4.60;;;12.90;57.50;;;;;;5017160;28;20438;-50
2023/03/21 11:03:45;;;;;;;5.60;4.23;;;12.90;57.50;;;;;;5022981;28;20454;-52
2023/03/21 11:06:38;;;;;;;4.50;4.10;;;12.90;56.10;;;;;;5023589;28;21001;-49
2023/03/21 11:09:16;;;;;;;5.00;3.80;;;12.90;56.80;;;;;;5017121;28;20434;-52
2023/03/21 11:12:02;;;;;;;3.93;3.53;;;12.90;56.60;;;;;;5019408;28;20549;-51
2023/03/21 11:14:38;;;;;;;4.43;3.50;;;12.90;55.70;;;;;;5022343;28;20457;-50
2023/03/21 11:17:27;;;;;;;5.97;3.53;;;12.80;56.30;;;;;;5020771;28;20793;-52
2023/03/21 11:19:57;;;;;;;5.40;4.13;;;12.90;56.00;;;;;;5017957;28;20803;-53
2023/03/21 11:22:27;;;;;;;5.53;4.20;;;12.90;56.30;;;;;;5027086;28;20450;-54
2023/03/21 11:24:58;;;;;;;6.13;3.83;;;13.00;56.50;;;;;;5024674;28;20503;-51
2023/03/21 11:27:28;;;;;;;7.03;4.03;;;13.00;56.50;;;;;;5014800;28;20431;-52
2023/03/21 11:29:56;;;;;;;5.13;4.50;;;13.10;56.70;;;;;;5019138;28;20807;-51
2023/03/21 11:32:36;;;;;;;4.47;4.03;;;13.30;56.80;;;;;;5023455;28;20483;-51
2023/03/21 11:35:16;;;;;;;4.93;3.70;;;13.40;55.60;;;;;;5025262;28;20930;-52
2023/03/21 11:37:49;;;;;;;5.20;3.80;;;13.50;55.60;;;;;;5024451;28;20943;-52
2023/03/21 11:40:30;;;;;;;4.70;3.57;;;13.60;55.40;;;;;;5021032;28;20467;-53
2023/03/21 11:42:59;;;;;;;5.47;4.40;;;13.90;55.50;;;;;;5027379;28;20458;-52
2023/03/21 11:45:29;;;;;;;4.70;4.00;;;14.10;54.70;;;;;;5027174;28;20462;-51
2023/03/21 11:47:58;;;;;;;9.67;4.20;;;14.10;54.40;;;;;;5017299;28;20423;-53
2023/03/21 11:50:33;;;;;;;4.90;3.70;;;14.10;53.20;;;;;;5019128;28;20422;-53
2023/03/21 11:53:17;;;;;;;4.00;3.53;;;14.00;52.90;;;;;;5021897;28;20438;-51
2023/03/21 11:55:57;;;;;;;4.47;4.07;;;13.90;53.00;;;;;;5026054;28;20797;-53
2023/03/21 11:58:23;;;;;;;4.33;3.93;;;13.90;52.80;;;;;;5018583;28;20443;-53
2023/03/21 12:01:13;;;;;;;3.97;3.57;;;14.00;53.00;;;;;;5021765;28;20976;-53
2023/03/21 12:04:05;;;;;;;6.53;3.97;;;14.10;52.60;;;;;;5022284;28;20633;-55
2023/03/21 12:07:21;;;;;;;5.77;3.67;;;14.20;51.90;;;;;;5022370;28;20467;-53
2023/03/21 12:09:54;;;;;;;5.23;3.83;;;14.20;51.20;;;;;;5020607;28;20435;-53
2023/03/21 12:12:39;;;;;;;3.50;3.00;;;14.40;51.60;;;;;;5011637;28;20805;-53
2023/03/21 12:15:13;;;;;;;3.33;3.03;;;14.50;51.00;;;;;;5023590;28;20987;-54
2023/03/21 12:17:38;;;;;;;4.37;3.20;;;14.70;51.30;;;;;;5026533;28;20427;-53
2023/03/21 12:20:24;;;;;;;3.67;2.50;;;14.90;50.90;;;;;;5019741;28;20973;-52
2023/03/21 12:23:02;;;;;;;3.77;2.40;;;15.20;51.20;;;;;;5021954;28;20275;-54
2023/03/21 12:25:30;;;;;;;4.10;2.17;;;15.40;49.40;;;;;;5016346;28;20469;-53
2023/03/21 12:28:25;;;;;;;7.70;2.47;;;15.50;48.70;;;;;;5011005;28;20434;-53
2023/03/21 12:31:12;;;;;;;2.67;2.47;;;15.60;48.20;;;;;;5019136;28;20548;-51
2023/03/21 12:34:10;;;;;;;7.87;2.30;;;15.60;46.40;;;;;;5018871;28;21045;-51
2023/03/21 12:37:11;;;;;;;2.50;2.30;;;15.70;46.90;;;;;;5028874;28;20468;-51
2023/03/21 12:39:40;;;;;;;3.43;2.90;;;15.80;46.40;;;;;;5023571;28;20956;-51
2023/03/21 12:42:36;;;;;;;2.83;2.50;;;16.00;47.10;;;;;;5021401;28;20465;-50
2023/03/21 12:45:12;;;;;;;3.40;2.33;;;16.30;47.50;;;;;;5022388;28;20455;-50
2023/03/21 12:47:41;;;;;;;4.53;3.20;;;16.50;46.20;;;;;;5021241;28;20970;-53
2023/03/21 12:50:17;;;;;;;4.13;2.90;;;16.60;45.50;;;;;;5020105;28;20480;-53
2023/03/21 12:52:48;;;;;;;3.57;3.10;;;16.60;45.30;;;;;;5025318;28;20508;-50
2023/03/21 12:55:19;;;;;;;5.57;3.20;;;16.50;45.30;;;;;;5022845;28;20430;-50
2023/03/21 12:57:56;;;;;;;3.20;2.90;;;16.50;45.10;;;;;;5016601;28;20454;-50
2023/03/21 13:00:46;;;;;;;3.70;2.60;;;16.30;45.00;;;;;;5024001;28;20505;-50
2023/03/21 13:03:23;;;;;;;3.90;3.60;;;16.30;45.00;;;;;;5026322;28;20465;-49
2023/03/21 13:06:04;;;;;;;5.03;3.70;;;16.20;45.60;;;;;;5022166;28;20450;-50
2023/03/21 13:08:38;;;;;;;3.50;3.20;;;16.10;46.00;;;;;;5008346;28;21179;-50
2023/03/21 13:11:07;;;;;;;4.77;3.40;;;16.00;46.60;;;;;;5022618;28;20426;-53